createdAt,value
2022-12-03T00:02:22.399Z,18.30
2022-12-03T00:05:24.971Z,21.40
2022-12-03T00:08:27.711Z,21.80
2022-12-03T00:11:30.261Z,23.42
2022-12-03T00:14:32.726Z,22.55
2022-12-03T00:17:35.677Z,22.83
2022-12-03T00:20:38.130Z,27.95
2022-12-03T00:23:42.512Z,32.23
2022-12-03T00:26:45.072Z,32.65
2022-12-03T00:29:48.616Z,34.28
2022-12-03T00:32:51.012Z,30.13
2022-12-03T00:35:53.527Z,30.42
2022-12-03T00:38:56.148Z,28.40
2022-12-03T00:41:59.664Z,26.08
2022-12-03T00:45:02.109Z,24.25
2022-12-03T00:48:04.651Z,23.33
2022-12-03T00:51:07.206Z,21.67
2022-12-03T00:54:09.636Z,22.97
2022-12-03T00:57:12.182Z,24.73
2022-12-03T01:00:16.804Z,24.77
2022-12-03T01:03:19.389Z,26.50
2022-12-03T01:06:21.984Z,25.95
2022-12-03T01:09:24.424Z,25.80
2022-12-03T01:12:26.888Z,25.25
2022-12-03T01:15:29.349Z,22.42
2022-12-03T01:18:32.089Z,21.50
2022-12-03T01:21:35.004Z,21.35
2022-12-03T01:24:37.367Z,22.73
2022-12-03T01:27:39.809Z,23.58
2022-12-03T01:31:02.289Z,20.40
2022-12-03T01:34:05.304Z,23.23
2022-12-03T01:37:07.736Z,23.20
2022-12-03T01:40:12.448Z,22.60
2022-12-03T01:43:14.909Z,23.70
2022-12-03T01:46:20.742Z,22.85
2022-12-03T01:49:28.706Z,22.05
2022-12-03T01:52:33.557Z,20.67
2022-12-03T01:55:36.275Z,21.37
2022-12-03T01:58:39.053Z,21.75
2022-12-03T02:01:41.592Z,22.10
2022-12-03T02:04:44.110Z,22.88
2022-12-03T02:07:46.949Z,23.90
2022-12-03T02:10:49.413Z,23.30
2022-12-03T02:13:55.895Z,23.90
2022-12-03T02:17:00.471Z,24.25
2022-12-03T02:20:04.756Z,28.70
2022-12-03T02:23:12.000Z,24.85
2022-12-03T02:26:14.464Z,23.70
2022-12-03T02:29:16.875Z,24.33
2022-12-03T02:32:20.608Z,25.38
2022-12-03T02:35:29.419Z,23.88
2022-12-03T02:38:32.730Z,22.33
2022-12-03T02:41:54.207Z,25.33
2022-12-03T02:45:02.037Z,23.65
2022-12-03T02:48:11.832Z,21.42
2022-12-03T02:51:14.236Z,21.45
2022-12-03T02:54:16.651Z,22.73
2022-12-03T02:57:19.151Z,22.10
2022-12-03T03:00:23.020Z,20.52
2022-12-03T03:03:27.560Z,21.85
2022-12-03T03:06:30.196Z,21.75
2022-12-03T03:09:33.642Z,21.58
2022-12-03T03:12:39.211Z,22.37
2022-12-03T03:15:42.508Z,20.88
2022-12-03T03:18:45.081Z,24.15
2022-12-03T03:21:47.922Z,24.80
2022-12-03T03:24:50.586Z,24.50
2022-12-03T03:27:53.249Z,24.40
2022-12-03T03:30:56.793Z,22.52
2022-12-03T03:33:59.238Z,22.65
2022-12-03T03:37:01.791Z,22.65
2022-12-03T03:40:04.644Z,20.80
2022-12-03T03:43:07.267Z,21.93
2022-12-03T03:46:10.351Z,19.83
2022-12-03T03:49:14.666Z,21.67
2022-12-03T03:52:18.617Z,19.65
2022-12-03T03:55:21.054Z,19.17
2022-12-03T03:58:23.479Z,20.40
2022-12-03T04:01:26.055Z,19.73
2022-12-03T04:04:33.641Z,19.23
2022-12-03T04:07:36.147Z,20.63
2022-12-03T04:10:57.002Z,20.75
2022-12-03T04:13:59.467Z,21.30
2022-12-03T04:17:01.986Z,23.70
2022-12-03T04:20:05.438Z,27.17
2022-12-03T04:23:08.133Z,23.92
2022-12-03T04:26:28.720Z,26.80
2022-12-03T04:29:31.101Z,25.07
2022-12-03T04:32:51.737Z,28.88
2022-12-03T04:35:54.233Z,26.20
2022-12-03T04:38:56.696Z,30.52
2022-12-03T04:41:59.163Z,28.00
2022-12-03T04:45:01.604Z,36.37
2022-12-03T04:48:04.351Z,32.95
2022-12-03T04:51:06.753Z,32.17
2022-12-03T04:54:09.144Z,27.75
2022-12-03T04:57:12.771Z,24.83
2022-12-03T05:00:15.883Z,23.73
2022-12-03T05:03:18.376Z,23.65
2022-12-03T05:06:20.782Z,28.15
2022-12-03T05:09:23.477Z,24.70
2022-12-03T05:12:25.916Z,32.58
2022-12-03T05:15:28.308Z,22.00
2022-12-03T05:18:30.820Z,22.88
2022-12-03T05:21:33.415Z,40.83
2022-12-03T05:24:35.848Z,22.10
2022-12-03T05:27:38.256Z,21.02
2022-12-03T05:30:41.139Z,20.93
2022-12-03T05:33:44.520Z,52.50
2022-12-03T05:36:47.128Z,32.70
2022-12-03T05:39:49.628Z,34.92
2022-12-03T05:42:55.036Z,34.30
2022-12-03T05:45:57.554Z,34.50
2022-12-03T05:49:00.144Z,29.73
2022-12-03T05:52:02.909Z,26.20
2022-12-03T05:55:05.893Z,25.33
2022-12-03T05:58:08.396Z,33.55
2022-12-03T06:01:10.783Z,29.07
2022-12-03T06:04:13.200Z,31.75
2022-12-03T06:07:15.663Z,34.90
2022-12-03T06:10:22.707Z,44.95
2022-12-03T06:13:25.096Z,32.40
2022-12-03T06:16:27.565Z,29.17
2022-12-03T06:19:30.115Z,38.00
2022-12-03T06:22:32.759Z,38.78
2022-12-03T06:25:35.163Z,40.20
2022-12-03T06:28:37.984Z,38.03
2022-12-03T06:31:40.484Z,36.53
2022-12-03T06:34:43.013Z,30.10
2022-12-03T06:37:45.492Z,29.00
2022-12-03T06:40:48.084Z,37.78
2022-12-03T06:43:50.506Z,39.92
2022-12-03T06:46:53.150Z,56.23
2022-12-03T06:49:55.627Z,45.15
2022-12-03T06:52:58.068Z,52.03
2022-12-03T06:56:00.614Z,44.35
2022-12-03T06:59:03.179Z,41.17
2022-12-03T07:02:05.900Z,40.00
2022-12-03T07:05:08.543Z,40.35
2022-12-03T07:08:11.232Z,36.30
2022-12-03T07:11:32.159Z,34.63
2022-12-03T07:14:34.551Z,35.55
2022-12-03T07:17:36.956Z,31.53
2022-12-03T07:20:39.567Z,54.70
2022-12-03T07:23:42.005Z,44.75
2022-12-03T07:26:44.393Z,37.20
2022-12-03T07:29:46.954Z,33.60
2022-12-03T07:32:49.496Z,30.17
2022-12-03T07:35:52.286Z,30.88
2022-12-03T07:38:54.882Z,38.33
2022-12-03T07:41:57.421Z,40.08
2022-12-03T07:44:59.851Z,50.72
2022-12-03T07:48:02.273Z,46.27
2022-12-03T07:51:05.253Z,36.58
2022-12-03T07:54:07.830Z,31.40
2022-12-03T07:57:10.232Z,43.28
2022-12-03T08:00:13.268Z,50.95
2022-12-03T08:03:15.718Z,27.63
2022-12-03T08:06:18.216Z,36.08
2022-12-03T08:09:20.608Z,26.27
2022-12-03T08:12:40.158Z,23.35
2022-12-03T08:15:43.207Z,25.98
2022-12-03T08:18:46.781Z,64.93
2022-12-03T08:21:49.578Z,30.15
2022-12-03T08:24:52.316Z,26.88
2022-12-03T08:28:07.881Z,18.02
2022-12-03T08:31:12.973Z,19.60
2022-12-03T08:34:17.665Z,20.23
2022-12-03T08:37:20.144Z,24.88
2022-12-03T08:40:26.171Z,22.33
2022-12-03T08:43:29.356Z,23.58
2022-12-03T08:46:31.783Z,21.35
2022-12-03T08:49:34.408Z,21.03
2022-12-03T08:52:37.019Z,21.45
2022-12-03T08:55:43.659Z,23.80
2022-12-03T08:59:24.073Z,25.23
2022-12-03T09:02:31.903Z,33.70
2022-12-03T09:05:52.463Z,23.63
2022-12-03T09:08:55.014Z,27.00
2022-12-03T09:11:57.605Z,24.08
2022-12-03T09:14:59.980Z,23.40
2022-12-03T09:18:02.425Z,19.75
2022-12-03T09:21:05.803Z,20.27
2022-12-03T09:24:08.301Z,17.02
2022-12-03T09:27:10.708Z,18.67
2022-12-03T09:30:13.424Z,15.07
2022-12-03T09:33:15.908Z,18.85
2022-12-03T09:36:18.405Z,16.60
2022-12-03T09:39:20.951Z,15.88
2022-12-03T09:42:23.377Z,15.95
2022-12-03T09:45:25.900Z,15.48
2022-12-03T09:48:28.357Z,16.25
2022-12-03T09:51:35.484Z,13.73
2022-12-03T09:54:41.636Z,13.25
2022-12-03T09:57:48.249Z,28.05
2022-12-03T10:00:52.302Z,12.80
2022-12-03T10:03:54.788Z,15.82
2022-12-03T10:06:58.094Z,14.20
2022-12-03T10:10:00.546Z,13.50
2022-12-03T10:13:06.279Z,15.00
2022-12-03T10:16:12.209Z,13.38
2022-12-03T10:19:22.891Z,14.75
2022-12-03T10:22:25.315Z,15.03
2022-12-03T10:25:27.711Z,17.88
2022-12-03T10:28:33.213Z,16.10
2022-12-03T10:31:36.727Z,13.90
2022-12-03T10:34:42.530Z,15.25
2022-12-03T10:37:56.776Z,13.87
2022-12-03T10:41:00.108Z,15.57
2022-12-03T10:44:30.642Z,14.65
2022-12-03T10:47:33.268Z,14.57
2022-12-03T10:50:36.288Z,15.73
2022-12-03T10:53:40.576Z,14.50
2022-12-03T10:56:43.273Z,14.88
2022-12-03T10:59:45.702Z,14.23
2022-12-03T11:02:54.925Z,14.45
2022-12-03T11:06:05.991Z,15.35
2022-12-03T11:09:20.110Z,14.30
2022-12-03T11:12:28.625Z,15.93
2022-12-03T11:15:44.345Z,17.40
2022-12-03T11:18:49.852Z,14.88
2022-12-03T11:22:05.626Z,12.65
2022-12-03T11:25:28.803Z,13.20
2022-12-03T11:28:32.036Z,12.77
2022-12-03T11:31:39.536Z,13.13
2022-12-03T11:34:42.141Z,12.50
2022-12-03T11:37:44.656Z,12.82
2022-12-03T11:41:11.086Z,15.23
2022-12-03T11:44:31.754Z,13.40
2022-12-03T11:47:38.518Z,12.68
2022-12-03T11:50:52.037Z,13.05
2022-12-03T11:53:58.524Z,12.93
2022-12-03T11:57:01.152Z,11.97
2022-12-03T12:00:20.616Z,12.57
2022-12-03T12:03:33.286Z,11.50
2022-12-03T12:06:48.709Z,12.43
2022-12-03T12:09:55.489Z,14.10
2022-12-03T12:12:58.213Z,11.77
2022-12-03T12:16:06.250Z,17.25
2022-12-03T12:19:43.269Z,14.68
2022-12-03T12:22:45.664Z,12.52
2022-12-03T12:25:53.793Z,10.98
2022-12-03T12:28:56.711Z,11.57
2022-12-03T12:32:13.212Z,10.38
2022-12-03T12:35:19.180Z,10.93
2022-12-03T12:38:22.622Z,10.27
2022-12-03T12:41:25.071Z,10.98
2022-12-03T12:44:27.432Z,11.00
2022-12-03T12:47:30.307Z,11.50
2022-12-03T12:50:33.324Z,10.65
2022-12-03T12:53:36.889Z,10.48
2022-12-03T12:56:42.453Z,11.52
2022-12-03T12:59:45.265Z,10.80
2022-12-03T13:02:55.223Z,12.15
2022-12-03T13:05:57.993Z,11.13
2022-12-03T13:09:01.268Z,11.07
2022-12-03T13:12:04.254Z,11.43
2022-12-03T13:15:17.216Z,10.83
2022-12-03T13:18:28.615Z,11.00
2022-12-03T13:21:41.611Z,13.13
2022-12-03T13:24:47.696Z,22.80
2022-12-03T13:27:50.757Z,15.90
2022-12-03T13:30:53.306Z,13.83
2022-12-03T13:33:56.415Z,13.52
2022-12-03T13:37:01.002Z,19.02
2022-12-03T13:40:20.979Z,28.05
2022-12-03T13:43:23.405Z,22.02
2022-12-03T13:46:28.408Z,23.10
2022-12-03T13:49:30.951Z,19.33
2022-12-03T13:52:34.783Z,14.27
2022-12-03T13:55:40.421Z,13.90
2022-12-03T13:58:42.876Z,12.98
2022-12-03T14:01:45.829Z,14.10
2022-12-03T14:04:48.349Z,13.65
2022-12-03T14:07:50.821Z,14.55
2022-12-03T14:10:59.891Z,13.80
2022-12-03T14:14:03.329Z,14.20
2022-12-03T14:17:06.602Z,15.17
2022-12-03T14:20:10.042Z,14.95
2022-12-03T14:23:12.619Z,17.92
2022-12-03T14:26:15.327Z,22.95
2022-12-03T14:29:17.808Z,17.23
2022-12-03T14:32:20.177Z,24.77
2022-12-03T14:35:23.358Z,29.83
2022-12-03T14:38:25.976Z,19.40
2022-12-03T14:41:46.929Z,14.77
2022-12-03T14:44:50.496Z,14.55
2022-12-03T14:47:52.950Z,19.87
2022-12-03T14:50:55.414Z,17.33
2022-12-03T14:53:57.844Z,18.70
2022-12-03T14:57:00.591Z,18.05
2022-12-03T15:00:04.234Z,16.00
2022-12-03T15:03:06.745Z,16.30
2022-12-03T15:06:09.248Z,15.05
2022-12-03T15:09:12.063Z,16.30
2022-12-03T15:12:15.378Z,15.88
2022-12-03T15:15:17.849Z,15.02
2022-12-03T15:18:20.363Z,18.23
2022-12-03T15:21:22.738Z,15.95
2022-12-03T15:24:25.363Z,15.35
2022-12-03T15:27:27.808Z,15.00
2022-12-03T15:30:30.869Z,16.85
2022-12-03T15:33:33.397Z,14.73
2022-12-03T15:36:35.897Z,16.52
2022-12-03T15:39:42.459Z,17.58
2022-12-03T15:42:49.231Z,15.98
2022-12-03T15:45:51.802Z,15.70
2022-12-03T15:48:55.053Z,17.50
2022-12-03T15:51:57.584Z,18.63
2022-12-03T15:55:00.036Z,18.63
2022-12-03T15:58:02.444Z,25.40
2022-12-03T16:01:05.351Z,44.08
2022-12-03T16:04:08.157Z,44.00
2022-12-03T16:07:10.852Z,49.50
2022-12-03T16:10:13.383Z,43.17
2022-12-03T16:13:15.938Z,28.60
2022-12-03T16:16:18.653Z,25.35
2022-12-03T16:19:21.564Z,21.50
2022-12-03T16:22:24.207Z,22.17
2022-12-03T16:25:26.564Z,28.95
2022-12-03T16:28:29.332Z,21.08
2022-12-03T16:31:32.074Z,18.80
2022-12-03T16:34:34.772Z,19.03
2022-12-03T16:37:37.160Z,18.40
2022-12-03T16:40:39.978Z,16.23
2022-12-03T16:43:45.524Z,17.75
2022-12-03T16:46:48.135Z,30.02
2022-12-03T16:49:50.740Z,24.93
2022-12-03T16:52:53.243Z,23.40
2022-12-03T16:55:55.692Z,22.17
2022-12-03T16:58:58.154Z,21.17
2022-12-03T17:02:00.659Z,25.30
2022-12-03T17:05:03.479Z,22.90
2022-12-03T17:08:06.072Z,21.80
2022-12-03T17:11:09.221Z,21.23
2022-12-03T17:14:12.157Z,25.13
2022-12-03T17:17:14.589Z,22.38
2022-12-03T17:20:17.905Z,20.90
2022-12-03T17:23:20.336Z,23.02
2022-12-03T17:26:22.833Z,20.35
2022-12-03T17:29:25.892Z,20.73
2022-12-03T17:32:28.604Z,21.95
2022-12-03T17:35:31.118Z,17.77
2022-12-03T17:38:38.773Z,18.83
2022-12-03T17:41:42.038Z,20.58
2022-12-03T17:44:44.500Z,18.13
2022-12-03T17:47:46.952Z,23.40
2022-12-03T17:50:50.223Z,48.33
2022-12-03T17:53:52.630Z,61.53
2022-12-03T17:56:55.057Z,33.55
2022-12-03T17:59:57.610Z,31.20
2022-12-03T18:03:00.239Z,43.97
2022-12-03T18:06:03.307Z,29.20
2022-12-03T18:09:05.893Z,29.20
2022-12-03T18:12:08.321Z,30.05
2022-12-03T18:15:11.537Z,28.17
2022-12-03T18:18:14.380Z,28.10
2022-12-03T18:21:16.777Z,49.53
2022-12-03T18:24:19.434Z,40.47
2022-12-03T18:27:22.547Z,37.30
2022-12-03T18:30:25.193Z,29.25
2022-12-03T18:33:27.765Z,28.73
2022-12-03T18:36:34.481Z,25.60
2022-12-03T18:39:37.159Z,37.17
2022-12-03T18:42:39.689Z,34.33
2022-12-03T18:45:42.607Z,34.33
2022-12-03T18:48:48.076Z,35.22
2022-12-03T18:51:54.472Z,37.90
2022-12-03T18:55:01.343Z,34.10
2022-12-03T18:58:04.086Z,44.85
2022-12-03T19:01:08.043Z,34.80
2022-12-03T19:04:11.028Z,41.20
2022-12-03T19:07:13.952Z,50.73
2022-12-03T19:10:17.829Z,52.85
2022-12-03T19:13:20.471Z,47.83
2022-12-03T19:16:23.540Z,42.00
2022-12-03T19:19:27.374Z,46.08
2022-12-03T19:22:29.786Z,48.97
2022-12-03T19:25:33.047Z,37.72
2022-12-03T19:28:35.989Z,33.17
2022-12-03T19:31:39.503Z,31.98
2022-12-03T19:34:42.358Z,30.73
2022-12-03T19:37:46.444Z,31.83
2022-12-03T19:40:58.645Z,34.40
2022-12-03T19:44:03.153Z,25.67
2022-12-03T19:47:09.391Z,25.77
2022-12-03T19:50:19.318Z,26.67
2022-12-03T19:53:26.244Z,22.53
2022-12-03T19:56:30.494Z,23.88
2022-12-03T19:59:33.268Z,23.13
2022-12-03T20:02:35.973Z,21.95
2022-12-03T20:05:40.305Z,20.17
2022-12-03T20:08:43.412Z,18.87
2022-12-03T20:11:46.430Z,22.80
2022-12-03T20:14:50.112Z,29.00
2022-12-03T20:17:53.209Z,27.27
2022-12-03T20:21:00.089Z,31.38
2022-12-03T20:24:02.742Z,37.43
2022-12-03T20:27:05.466Z,33.92
2022-12-03T20:30:08.466Z,40.55
2022-12-03T20:33:13.613Z,22.33
2022-12-03T20:36:17.834Z,20.42
2022-12-03T20:39:20.674Z,19.27
2022-12-03T20:42:23.540Z,19.23
2022-12-03T20:45:27.307Z,20.50
2022-12-03T20:48:30.130Z,26.23
2022-12-03T20:51:33.024Z,28.55
2022-12-03T20:54:35.784Z,26.23
2022-12-03T20:57:38.237Z,35.63
2022-12-03T21:00:40.975Z,37.45
2022-12-03T21:03:45.165Z,34.63
2022-12-03T21:06:47.759Z,34.70
2022-12-03T21:09:50.877Z,46.00
2022-12-03T21:12:53.568Z,80.13
2022-12-03T21:16:07.256Z,65.88
2022-12-03T21:19:09.780Z,46.05
2022-12-03T21:22:12.352Z,46.38
2022-12-03T21:25:15.163Z,42.93
2022-12-03T21:28:17.547Z,44.63
2022-12-03T21:31:25.827Z,41.38
2022-12-03T21:34:35.518Z,37.72
2022-12-03T21:37:38.600Z,37.85
2022-12-03T21:40:41.070Z,41.67
2022-12-03T21:43:43.934Z,37.67
2022-12-03T21:47:12.689Z,38.78
2022-12-03T21:50:11.516Z,31.80
2022-12-03T21:53:13.930Z,39.22
2022-12-03T21:56:19.109Z,40.77
2022-12-03T21:59:21.607Z,41.15
2022-12-03T22:02:24.079Z,42.78
2022-12-03T22:05:26.558Z,40.60
2022-12-03T22:08:28.948Z,41.03
2022-12-03T22:11:31.449Z,40.03
2022-12-03T22:14:33.819Z,39.00
2022-12-03T22:17:37.201Z,38.83
2022-12-03T22:20:42.238Z,40.97
2022-12-03T22:23:45.071Z,37.88
2022-12-03T22:26:47.705Z,42.30
2022-12-03T22:29:50.157Z,45.30
2022-12-03T22:32:52.621Z,49.20
2022-12-03T22:35:59.954Z,41.50
2022-12-03T22:39:02.369Z,39.47
2022-12-03T22:42:04.997Z,38.37
2022-12-03T22:45:07.615Z,41.38
2022-12-03T22:48:10.280Z,41.50
2022-12-03T22:51:17.402Z,41.63
2022-12-03T22:54:23.915Z,45.50
2022-12-03T22:57:26.829Z,43.83
2022-12-03T23:00:32.621Z,43.38
2022-12-03T23:03:35.252Z,35.75
2022-12-03T23:06:38.205Z,34.97
2022-12-03T23:09:40.945Z,33.17
2022-12-03T23:12:43.661Z,29.17
2022-12-03T23:15:47.496Z,31.33
2022-12-03T23:18:50.688Z,32.03
2022-12-03T23:21:53.129Z,31.90
2022-12-03T23:24:55.633Z,34.03
2022-12-03T23:27:58.036Z,41.47
2022-12-03T23:31:00.784Z,44.95
2022-12-03T23:34:03.937Z,42.78
2022-12-03T23:37:06.500Z,34.08
2022-12-03T23:40:09.384Z,45.25
2022-12-03T23:43:11.951Z,43.90
2022-12-03T23:46:16.984Z,33.22
2022-12-03T23:49:19.449Z,46.00
2022-12-03T23:52:21.943Z,50.33
2022-12-03T23:55:24.409Z,47.95
2022-12-03T23:58:27.040Z,44.93
